createdAt,value
2022-11-15T00:02:13.118Z,6.13
2022-11-15T00:05:17.244Z,5.57
2022-11-15T00:08:22.314Z,6.10
2022-11-15T00:11:27.420Z,5.90
2022-11-15T00:14:32.209Z,5.97
2022-11-15T00:17:36.627Z,6.10
2022-11-15T00:20:41.017Z,5.88
2022-11-15T00:23:45.453Z,7.10
2022-11-15T00:26:51.476Z,7.05
2022-11-15T00:29:56.427Z,7.22
2022-11-15T00:33:05.582Z,7.10
2022-11-15T00:36:11.865Z,6.82
2022-11-15T00:39:16.108Z,7.20
2022-11-15T00:42:27.090Z,7.20
2022-11-15T00:45:31.466Z,6.85
2022-11-15T00:48:35.818Z,7.68
2022-11-15T00:51:40.157Z,8.25
2022-11-15T00:54:44.694Z,8.00
2022-11-15T00:57:49.174Z,8.15
2022-11-15T01:00:54.060Z,8.18
2022-11-15T01:04:01.279Z,8.43
2022-11-15T01:07:06.218Z,7.95
2022-11-15T01:10:10.738Z,8.15
2022-11-15T01:13:15.351Z,8.27
2022-11-15T01:16:20.313Z,8.25
2022-11-15T01:19:25.202Z,8.70
2022-11-15T01:22:29.663Z,8.30
2022-11-15T01:25:34.241Z,8.82
2022-11-15T01:28:41.217Z,8.25
2022-11-15T01:31:45.998Z,8.55
2022-11-15T01:34:50.518Z,8.48
2022-11-15T01:37:54.966Z,8.88
2022-11-15T01:40:59.456Z,8.38
2022-11-15T01:44:31.981Z,9.13
2022-11-15T01:47:44.335Z,9.48
2022-11-15T01:50:49.475Z,9.05
2022-11-15T01:53:57.517Z,9.32
2022-11-15T01:57:11.586Z,10.00
2022-11-15T02:00:16.842Z,9.32
2022-11-15T02:03:27.373Z,9.80
2022-11-15T02:06:32.693Z,9.35
2022-11-15T02:09:38.196Z,9.68
2022-11-15T02:12:43.040Z,10.32
2022-11-15T02:16:03.022Z,10.50
2022-11-15T02:19:13.886Z,10.77
2022-11-15T02:22:46.125Z,11.80
2022-11-15T02:26:18.136Z,11.07
2022-11-15T02:29:39.118Z,11.10
2022-11-15T02:32:59.912Z,10.95
2022-11-15T02:36:14.778Z,12.30
2022-11-15T02:39:41.627Z,11.85
2022-11-15T02:43:16.738Z,11.45
2022-11-15T02:47:05.402Z,12.60
2022-11-15T02:50:13.730Z,12.00
2022-11-15T02:53:18.396Z,12.70
2022-11-15T02:56:22.957Z,13.25
2022-11-15T02:59:36.623Z,12.82
2022-11-15T03:02:50.852Z,13.57
2022-11-15T03:06:06.578Z,13.77
2022-11-15T03:09:17.378Z,13.88
2022-11-15T03:12:49.562Z,13.68
2022-11-15T03:16:16.804Z,15.73
2022-11-15T03:19:33.018Z,15.60
2022-11-15T03:22:41.791Z,15.73
2022-11-15T03:25:49.563Z,15.68
2022-11-15T03:29:04.654Z,17.10
2022-11-15T03:32:20.398Z,16.23
2022-11-15T03:35:28.282Z,16.08
2022-11-15T03:38:34.287Z,16.75
2022-11-15T03:41:51.436Z,17.20
2022-11-15T03:45:24.907Z,16.60
2022-11-15T03:48:34.414Z,17.63
2022-11-15T03:51:39.044Z,17.13
2022-11-15T03:54:55.843Z,17.42
2022-11-15T03:58:01.695Z,17.73
2022-11-15T04:01:06.276Z,17.30
2022-11-15T04:04:10.799Z,17.83
2022-11-15T04:07:15.229Z,17.95
2022-11-15T04:10:20.215Z,18.45
2022-11-15T04:13:24.866Z,17.52
2022-11-15T04:16:29.471Z,17.05
2022-11-15T04:19:59.730Z,19.63
2022-11-15T04:23:29.877Z,18.30
2022-11-15T04:26:34.959Z,18.05
2022-11-15T04:29:39.256Z,17.95
2022-11-15T04:32:43.715Z,18.25
2022-11-15T04:36:08.226Z,18.58
2022-11-15T04:39:13.100Z,18.70
2022-11-15T04:42:17.572Z,18.05
2022-11-15T04:45:22.331Z,19.45
2022-11-15T04:48:27.361Z,19.52
2022-11-15T04:51:32.154Z,19.00
2022-11-15T04:54:36.552Z,18.55
2022-11-15T04:57:41.082Z,17.92
2022-11-15T05:00:45.883Z,18.73
2022-11-15T05:04:09.489Z,19.13
2022-11-15T05:07:14.131Z,18.77
2022-11-15T05:10:18.983Z,18.92
2022-11-15T05:13:23.297Z,17.60
2022-11-15T05:16:27.703Z,17.05
2022-11-15T05:19:32.362Z,17.33
2022-11-15T05:22:36.758Z,17.42
2022-11-15T05:25:41.104Z,17.60
2022-11-15T05:28:46.078Z,17.60
2022-11-15T05:31:50.826Z,19.02
2022-11-15T05:34:56.648Z,17.08
2022-11-15T05:38:01.381Z,17.38
2022-11-15T05:41:07.048Z,16.77
2022-11-15T05:44:14.726Z,17.02
2022-11-15T05:47:23.041Z,17.13
2022-11-15T05:50:27.998Z,17.63
2022-11-15T05:53:33.691Z,16.83
2022-11-15T05:56:38.555Z,16.92
2022-11-15T05:59:44.628Z,17.83
2022-11-15T06:02:49.546Z,17.17
2022-11-15T06:05:54.276Z,16.25
2022-11-15T06:08:58.620Z,16.58
2022-11-15T06:12:03.150Z,16.05
2022-11-15T06:15:08.124Z,16.10
2022-11-15T06:18:12.550Z,16.52
2022-11-15T06:21:17.048Z,16.40
2022-11-15T06:24:21.477Z,16.02
2022-11-15T06:27:25.765Z,16.38
2022-11-15T06:30:30.156Z,16.85
2022-11-15T06:33:34.903Z,17.50
2022-11-15T06:36:39.539Z,16.15
2022-11-15T06:39:44.089Z,16.63
2022-11-15T06:42:48.648Z,16.95
2022-11-15T06:45:53.387Z,17.50
2022-11-15T06:48:57.877Z,16.95
2022-11-15T06:52:01.999Z,16.25
2022-11-15T06:55:07.400Z,17.35
2022-11-15T06:58:11.997Z,16.60
2022-11-15T07:01:16.463Z,16.90
2022-11-15T07:04:21.120Z,17.30
2022-11-15T07:07:25.449Z,16.48
2022-11-15T07:10:30.691Z,16.20
2022-11-15T07:13:36.727Z,15.27
2022-11-15T07:16:41.311Z,15.57
2022-11-15T07:19:45.628Z,16.00
2022-11-15T07:22:49.861Z,16.63
2022-11-15T07:25:54.373Z,15.68
2022-11-15T07:28:58.784Z,16.00
2022-11-15T07:32:03.673Z,16.35
2022-11-15T07:35:08.178Z,16.50
2022-11-15T07:38:12.869Z,16.48
2022-11-15T07:41:17.137Z,16.98
2022-11-15T07:44:21.614Z,16.90
2022-11-15T07:47:26.749Z,16.60
2022-11-15T07:50:32.267Z,16.20
2022-11-15T07:53:36.856Z,15.32
2022-11-15T07:56:41.176Z,15.48
2022-11-15T07:59:45.453Z,15.35
2022-11-15T08:02:49.999Z,14.90
2022-11-15T08:05:54.795Z,15.48
2022-11-15T08:08:59.129Z,15.10
2022-11-15T08:12:03.241Z,14.98
2022-11-15T08:15:07.957Z,14.60
2022-11-15T08:18:15.108Z,13.75
2022-11-15T08:21:21.657Z,14.02
2022-11-15T08:24:26.273Z,13.40
2022-11-15T08:27:31.035Z,14.25
2022-11-15T08:30:42.653Z,14.05
2022-11-15T08:33:47.450Z,13.68
2022-11-15T08:36:51.852Z,14.18
2022-11-15T08:39:56.818Z,14.52
2022-11-15T08:43:03.606Z,14.48
2022-11-15T08:46:13.115Z,15.27
2022-11-15T08:49:17.726Z,15.48
2022-11-15T08:52:22.482Z,15.30
2022-11-15T08:55:26.893Z,14.52
2022-11-15T08:58:31.864Z,14.95
2022-11-15T09:01:36.898Z,15.13
2022-11-15T09:04:45.095Z,15.63
2022-11-15T09:07:59.385Z,15.40
2022-11-15T09:11:09.701Z,14.70
2022-11-15T09:14:15.313Z,14.63
2022-11-15T09:17:24.442Z,14.30
2022-11-15T09:20:30.031Z,14.00
2022-11-15T09:23:37.553Z,13.95
2022-11-15T09:26:42.330Z,13.77
2022-11-15T09:29:47.094Z,13.38
2022-11-15T09:32:52.256Z,12.68
2022-11-15T09:36:02.467Z,12.50
2022-11-15T09:39:07.672Z,11.93
2022-11-15T09:42:24.410Z,11.43
2022-11-15T09:45:49.073Z,10.18
2022-11-15T09:49:09.633Z,9.75
2022-11-15T09:52:28.510Z,7.78
2022-11-15T09:55:22.400Z,8.05
2022-11-15T09:58:39.619Z,7.47
2022-11-15T10:01:59.222Z,6.55
2022-11-15T10:04:45.504Z,6.65
2022-11-15T10:07:49.900Z,6.30
2022-11-15T10:10:46.706Z,5.93
2022-11-15T10:13:41.083Z,4.82
2022-11-15T10:16:48.463Z,4.60
2022-11-15T10:19:55.637Z,3.70
2022-11-15T10:22:45.612Z,4.28
2022-11-15T10:25:35.398Z,3.40
2022-11-15T10:28:30.533Z,3.78
2022-11-15T10:31:27.008Z,3.22
2022-11-15T10:34:23.920Z,2.70
2022-11-15T10:37:09.830Z,2.35
2022-11-15T10:40:32.438Z,2.28
2022-11-15T10:43:21.076Z,2.03
2022-11-15T10:46:46.685Z,1.60
2022-11-15T10:49:34.579Z,1.20
2022-11-15T10:52:21.533Z,1.13
2022-11-15T10:55:20.772Z,0.90
2022-11-15T10:58:37.520Z,1.13
2022-11-15T11:01:25.759Z,0.52
2022-11-15T11:04:11.861Z,0.77
2022-11-15T11:07:00.728Z,0.65
2022-11-15T11:09:46.558Z,0.73
2022-11-15T11:12:34.711Z,0.80
2022-11-15T11:15:20.887Z,0.50
2022-11-15T11:18:21.695Z,0.70
2022-11-15T11:21:15.323Z,0.70
2022-11-15T11:24:16.908Z,0.57
2022-11-15T11:27:05.705Z,0.50
2022-11-15T11:30:35.803Z,0.47
2022-11-15T11:33:40.093Z,0.40
2022-11-15T11:36:50.384Z,0.70
2022-11-15T11:39:48.060Z,0.65
2022-11-15T11:42:48.918Z,0.60
2022-11-15T11:45:37.778Z,0.80
2022-11-15T11:48:44.679Z,0.80
2022-11-15T11:51:39.726Z,0.70
2022-11-15T11:54:37.074Z,0.70
2022-11-15T11:57:40.005Z,0.70
2022-11-15T12:00:29.471Z,0.80
2022-11-15T12:03:29.645Z,0.52
2022-11-15T12:06:41.546Z,0.75
2022-11-15T12:09:45.810Z,0.45
2022-11-15T12:12:42.537Z,0.70
2022-11-15T12:15:46.627Z,0.40
2022-11-15T12:18:32.486Z,0.80
2022-11-15T12:21:46.227Z,0.80
2022-11-15T12:24:42.509Z,0.38
2022-11-15T12:27:31.062Z,0.30
2022-11-15T12:30:20.289Z,0.28
2022-11-15T12:33:06.192Z,0.20
2022-11-15T12:36:03.837Z,0.40
2022-11-15T12:38:55.607Z,0.40
2022-11-15T12:42:02.290Z,0.20
2022-11-15T12:44:48.180Z,0.40
2022-11-15T12:47:33.599Z,0.30
2022-11-15T12:50:52.157Z,0.73
2022-11-15T12:53:37.785Z,0.57
2022-11-15T12:56:24.249Z,0.45
2022-11-15T12:59:10.002Z,0.43
2022-11-15T13:02:00.100Z,0.30
2022-11-15T13:04:45.647Z,0.28
2022-11-15T13:07:40.217Z,0.50
2022-11-15T13:10:33.349Z,0.70
2022-11-15T13:13:45.946Z,0.50
2022-11-15T13:16:32.146Z,0.60
2022-11-15T13:19:22.991Z,0.40
2022-11-15T13:22:30.911Z,0.40
2022-11-15T13:25:22.864Z,0.30
2022-11-15T13:28:17.429Z,0.40
2022-11-15T13:31:20.678Z,0.40
2022-11-15T13:34:51.178Z,0.30
2022-11-15T13:37:37.767Z,0.35
2022-11-15T13:40:31.466Z,0.28
2022-11-15T13:43:22.974Z,0.40
2022-11-15T13:46:11.568Z,0.30
2022-11-15T13:49:06.841Z,0.20
2022-11-15T13:51:55.986Z,0.30
2022-11-15T13:55:12.631Z,0.30
2022-11-15T13:58:06.928Z,0.30
2022-11-15T14:01:02.263Z,0.20
2022-11-15T14:03:58.367Z,0.70
2022-11-15T14:06:50.522Z,0.40
2022-11-15T14:09:38.955Z,0.60
2022-11-15T14:12:35.994Z,0.60
2022-11-15T14:15:35.467Z,0.60
2022-11-15T14:18:50.033Z,0.52
2022-11-15T14:21:36.470Z,0.70
2022-11-15T14:24:23.107Z,0.50
2022-11-15T14:27:27.928Z,0.40
2022-11-15T14:30:18.364Z,0.40
2022-11-15T14:33:19.478Z,0.47
2022-11-15T14:36:17.678Z,0.40
2022-11-15T14:39:06.214Z,0.40
2022-11-15T14:41:52.077Z,0.63
2022-11-15T14:44:40.200Z,0.60
2022-11-15T14:47:29.390Z,0.57
2022-11-15T14:50:20.997Z,0.50
2022-11-15T14:53:06.919Z,0.50
2022-11-15T14:55:53.980Z,0.50
2022-11-15T14:58:39.952Z,0.45
2022-11-15T15:01:27.165Z,0.55
2022-11-15T15:04:12.662Z,0.45
2022-11-15T15:06:58.266Z,0.80
2022-11-15T15:09:44.518Z,0.80
2022-11-15T15:12:31.107Z,0.73
2022-11-15T15:15:21.642Z,0.80
2022-11-15T15:25:00.774Z,1.80
2022-11-15T15:28:11.769Z,3.72
2022-11-15T15:34:57.488Z,9.55
2022-11-15T15:38:17.907Z,11.38
2022-11-15T15:45:02.976Z,6.47
2022-11-15T15:48:16.204Z,2.58
2022-11-15T15:55:03.176Z,1.30
2022-11-15T16:01:50.619Z,6.55
2022-11-15T16:05:01.875Z,13.02
2022-11-15T16:11:55.856Z,12.40
2022-11-15T16:15:07.249Z,20.20
